createdAt,value
2018-06-17T00:05:45.190Z,19.7
2018-06-17T00:15:44.370Z,19.7
2018-06-17T00:25:43.680Z,19.6
2018-06-17T00:35:42.817Z,19.6
2018-06-17T00:45:42.044Z,19.6
2018-06-17T00:55:41.269Z,19.5
2018-06-17T01:05:40.781Z,19.5
2018-06-17T01:15:39.722Z,19.4
2018-06-17T01:25:38.951Z,19.4
2018-06-17T01:35:38.172Z,19.4
2018-06-17T01:45:37.398Z,19.4
2018-06-17T01:55:36.627Z,19.3
2018-06-17T02:05:35.844Z,19.3
2018-06-17T02:15:35.072Z,19.3
2018-06-17T02:25:34.299Z,19.3
2018-06-17T02:35:33.521Z,19.2
2018-06-17T02:45:32.742Z,19.1
2018-06-17T02:55:31.977Z,19.1
2018-06-17T03:05:31.192Z,19.1
2018-06-17T03:15:30.720Z,19.1
2018-06-17T03:25:29.643Z,19.1
2018-06-17T03:35:29.143Z,19.1
2018-06-17T03:45:28.090Z,19.1
2018-06-17T03:55:27.361Z,19.1
2018-06-17T04:05:26.540Z,19.3
2018-06-17T04:15:25.768Z,19.4
2018-06-17T04:25:25.045Z,19.7
2018-06-17T04:35:24.256Z,19.9
2018-06-17T04:45:23.434Z,20.3
2018-06-17T04:55:22.661Z,20.6
2018-06-17T05:05:21.928Z,20.9
2018-06-17T05:15:21.194Z,21.2
2018-06-17T05:25:20.606Z,21.5
2018-06-17T05:35:19.831Z,21.8
2018-06-17T05:45:18.823Z,22.1
2018-06-17T05:55:18.005Z,22.3
2018-06-17T06:05:17.227Z,22.5
2018-06-17T06:15:16.442Z,22.7
2018-06-17T06:25:15.664Z,22.9
2018-06-17T06:35:14.890Z,22.9
2018-06-17T06:45:14.395Z,22.9
2018-06-17T06:55:13.335Z,22.9
2018-06-17T07:05:12.558Z,22.9
2018-06-17T07:15:11.781Z,23
2018-06-17T07:25:11.014Z,23.1
2018-06-17T07:35:10.234Z,23.5
2018-06-17T07:45:09.453Z,23.7
2018-06-17T07:55:08.683Z,23.8
2018-06-17T08:05:08.200Z,23.8
2018-06-17T08:15:07.134Z,23.9
2018-06-17T08:25:06.407Z,24.1
2018-06-17T08:35:05.580Z,24.1
2018-06-17T08:45:04.811Z,24.3
2018-06-17T08:55:04.041Z,24.4
2018-06-17T09:05:03.547Z,24.6
2018-06-17T09:15:02.489Z,24.7
2018-06-17T09:25:01.704Z,24.9
2018-06-17T09:35:00.932Z,25
2018-06-17T09:45:00.156Z,24.9
2018-06-17T09:54:59.386Z,25
2018-06-17T10:04:58.608Z,25.1
2018-06-17T10:14:57.831Z,25.1
2018-06-17T10:24:57.057Z,25.3
2018-06-17T10:34:56.284Z,25.4
2018-06-17T10:44:55.507Z,25.4
2018-06-17T10:54:54.737Z,25.4
2018-06-17T11:04:53.964Z,25.5
2018-06-17T11:14:53.466Z,25.5
2018-06-17T11:24:52.413Z,25.2
2018-06-17T11:34:51.645Z,24.6
2018-06-17T11:44:50.864Z,24
2018-06-17T11:54:50.094Z,23.6
2018-06-17T12:04:49.316Z,23.3
2018-06-17T12:14:48.610Z,23.2
2018-06-17T12:24:47.822Z,23.2
2018-06-17T12:34:47.278Z,23.2
2018-06-17T12:44:46.222Z,23.3
2018-06-17T12:54:45.451Z,23.5
2018-06-17T13:04:44.763Z,23.9
2018-06-17T13:14:43.899Z,24.3
2018-06-17T13:24:43.127Z,24.7
2018-06-17T13:34:42.633Z,25
2018-06-17T13:44:41.588Z,25.2
2018-06-17T13:54:40.812Z,25.1
2018-06-17T14:04:40.335Z,24.8
2018-06-17T14:14:39.272Z,24.4
2018-06-17T14:24:38.498Z,24
2018-06-17T14:34:37.722Z,23.8
2018-06-17T14:44:36.950Z,23.8
2018-06-17T14:54:36.178Z,23.9
2018-06-17T15:04:35.689Z,23.8
2018-06-17T15:14:34.640Z,23.6
2018-06-17T15:24:33.867Z,23.3
2018-06-17T15:34:33.102Z,23.1
2018-06-17T15:44:32.609Z,23.1
2018-06-17T15:54:31.558Z,23.1
2018-06-17T16:04:31.077Z,23.1
2018-06-17T16:14:30.027Z,23.1
2018-06-17T16:24:29.261Z,23
2018-06-17T16:34:28.494Z,23
2018-06-17T16:44:27.720Z,22.9
2018-06-17T16:54:26.948Z,22.8
2018-06-17T17:04:26.179Z,22.6
2018-06-17T17:14:25.416Z,22.4
2018-06-17T17:24:24.647Z,22.3
2018-06-17T17:34:23.868Z,22.3
2018-06-17T17:44:23.381Z,22.2
2018-06-17T17:54:22.799Z,22.1
2018-06-17T18:04:21.566Z,22.1
2018-06-17T18:14:20.846Z,22.3
2018-06-17T18:24:20.028Z,22.4
2018-06-17T18:34:19.265Z,22.6
2018-06-17T18:44:18.480Z,22.6
2018-06-17T18:54:17.710Z,22.6
2018-06-17T18:57:05.650Z,22.6
2018-06-17T18:58:05.427Z,22.6
2018-06-17T19:07:05.178Z,22.6
2018-06-17T19:08:04.623Z,22.6
2018-06-17T19:14:05.973Z,22.6
2018-06-17T19:24:05.213Z,22.6
2018-06-17T19:34:04.452Z,22.6
2018-06-17T19:44:03.689Z,22.6
2018-06-17T19:54:02.930Z,22.6
2018-06-17T20:04:02.171Z,22.4
2018-06-17T20:14:01.428Z,22.3
2018-06-17T20:24:00.740Z,21.9
2018-06-17T20:34:00.067Z,21.8
2018-06-17T20:43:59.377Z,21.8
2018-06-17T20:53:58.696Z,21.8
2018-06-17T21:03:58.011Z,21.6
2018-06-17T21:13:57.287Z,21.5
2018-06-17T21:23:56.524Z,21.4
2018-06-17T21:33:55.763Z,21.4
2018-06-17T21:43:55.002Z,21.3
2018-06-17T21:53:54.234Z,21.2
2018-06-17T22:03:53.479Z,21.1
2018-06-17T22:13:52.707Z,21
2018-06-17T22:23:51.948Z,20.9
2018-06-17T22:33:51.178Z,20.9
2018-06-17T22:43:50.415Z,20.8
2018-06-17T22:53:49.650Z,20.8
2018-06-17T23:03:48.886Z,20.7
2018-06-17T23:13:48.125Z,20.6
2018-06-17T23:23:47.356Z,20.6
2018-06-17T23:33:46.600Z,20.5
2018-06-17T23:43:45.827Z,20.5
2018-06-17T23:53:45.069Z,20.4
